sensor_id;sensor_type;location;lat;lon;timestamp;pressure;altitude;pressure_sealevel;temperature;humidity
50682;BME280;36779;52.168;20.878;2022-08-21T00:02:27;100113.63;;;22.04;55.57
50682;BME280;36779;52.168;20.878;2022-08-21T00:05:16;100111.52;;;22.02;55.52
50682;BME280;36779;52.168;20.878;2022-08-21T00:08:05;100116.66;;;21.94;55.53
50682;BME280;36779;52.168;20.878;2022-08-21T00:10:45;100120.27;;;21.89;55.56
50682;BME280;36779;52.168;20.878;2022-08-21T00:13:36;100120.03;;;21.81;55.63
50682;BME280;36779;52.168;20.878;2022-08-21T00:16:25;100122.04;;;21.73;55.59
50682;BME280;36779;52.168;20.878;2022-08-21T00:19:14;100123.15;;;21.68;55.80
50682;BME280;36779;52.168;20.878;2022-08-21T00:22:04;100122.54;;;21.62;55.75
50682;BME280;36779;52.168;20.878;2022-08-21T00:24:53;100120.70;;;21.56;55.77
50682;BME280;36779;52.168;20.878;2022-08-21T00:27:43;100120.70;;;21.48;55.88
50682;BME280;36779;52.168;20.878;2022-08-21T00:30:26;100116.97;;;21.41;55.98
50682;BME280;36779;52.168;20.878;2022-08-21T00:33:16;100118.57;;;21.35;55.99
50682;BME280;36779;52.168;20.878;2022-08-21T00:36:05;100122.97;;;21.31;56.12
50682;BME280;36779;52.168;20.878;2022-08-21T00:38:54;100113.70;;;21.29;56.12
50682;BME280;36779;52.168;20.878;2022-08-21T00:41:44;100103.95;;;21.29;56.33
50682;BME280;36779;52.168;20.878;2022-08-21T00:44:33;100104.43;;;21.28;56.42
50682;BME280;36779;52.168;20.878;2022-08-21T00:47:15;100098.92;;;21.24;56.48
50682;BME280;36779;52.168;20.878;2022-08-21T00:50:10;100099.00;;;21.18;56.30
50682;BME280;36779;52.168;20.878;2022-08-21T00:53:12;100100.00;;;21.11;56.51
50682;BME280;36779;52.168;20.878;2022-08-21T00:56:05;100095.50;;;21.09;56.68
50682;BME280;36779;52.168;20.878;2022-08-21T00:58:51;100096.14;;;21.08;56.67
50682;BME280;36779;52.168;20.878;2022-08-21T01:01:42;100093.69;;;21.05;56.67
50682;BME280;36779;52.168;20.878;2022-08-21T01:04:32;100094.86;;;20.99;56.71
50682;BME280;36779;52.168;20.878;2022-08-21T01:07:01;100092.90;;;20.88;56.59
50682;BME280;36779;52.168;20.878;2022-08-21T01:09:30;100085.48;;;20.79;56.79
50682;BME280;36779;52.168;20.878;2022-08-21T01:12:20;100084.26;;;20.73;56.76
50682;BME280;36779;52.168;20.878;2022-08-21T01:14:58;100084.64;;;20.71;56.85
50682;BME280;36779;52.168;20.878;2022-08-21T01:17:48;100091.23;;;20.75;57.09
50682;BME280;36779;52.168;20.878;2022-08-21T01:20:41;100086.45;;;20.72;57.12
50682;BME280;36779;52.168;20.878;2022-08-21T01:23:35;100086.99;;;20.67;57.17
50682;BME280;36779;52.168;20.878;2022-08-21T01:26:26;100088.45;;;20.65;57.36
50682;BME280;36779;52.168;20.878;2022-08-21T01:29:30;100091.07;;;20.65;57.46
50682;BME280;36779;52.168;20.878;2022-08-21T01:32:20;100091.02;;;20.58;57.26
50682;BME280;36779;52.168;20.878;2022-08-21T01:35:11;100091.01;;;20.48;57.37
50682;BME280;36779;52.168;20.878;2022-08-21T01:37:59;100090.61;;;20.36;57.41
50682;BME280;36779;52.168;20.878;2022-08-21T01:40:48;100088.17;;;20.25;57.38
50682;BME280;36779;52.168;20.878;2022-08-21T01:43:37;100083.58;;;20.16;57.57
50682;BME280;36779;52.168;20.878;2022-08-21T01:46:29;100081.27;;;20.08;57.52
50682;BME280;36779;52.168;20.878;2022-08-21T01:49:18;100073.91;;;20.02;57.59
50682;BME280;36779;52.168;20.878;2022-08-21T01:52:07;100070.55;;;19.96;57.74
50682;BME280;36779;52.168;20.878;2022-08-21T01:54:48;100062.23;;;19.90;57.82
50682;BME280;36779;52.168;20.878;2022-08-21T01:57:43;100060.00;;;19.83;57.90
50682;BME280;36779;52.168;20.878;2022-08-21T02:00:32;100060.51;;;19.78;58.14
50682;BME280;36779;52.168;20.878;2022-08-21T02:03:12;100057.00;;;19.72;58.15
50682;BME280;36779;52.168;20.878;2022-08-21T02:06:18;100056.63;;;19.67;58.16
50682;BME280;36779;52.168;20.878;2022-08-21T02:09:10;100054.29;;;19.64;58.32
50682;BME280;36779;52.168;20.878;2022-08-21T02:11:49;100055.64;;;19.60;58.32
50682;BME280;36779;52.168;20.878;2022-08-21T02:14:38;100060.82;;;19.58;58.54
50682;BME280;36779;52.168;20.878;2022-08-21T02:17:27;100053.99;;;19.56;58.63
50682;BME280;36779;52.168;20.878;2022-08-21T02:20:19;100051.58;;;19.54;58.78
50682;BME280;36779;52.168;20.878;2022-08-21T02:22:59;100049.34;;;19.53;58.74
50682;BME280;36779;52.168;20.878;2022-08-21T02:25:48;100041.84;;;19.52;58.86
50682;BME280;36779;52.168;20.878;2022-08-21T02:28:17;100040.38;;;19.51;58.90
50682;BME280;36779;52.168;20.878;2022-08-21T02:30:57;100040.60;;;19.47;58.86
50682;BME280;36779;52.168;20.878;2022-08-21T02:33:36;100041.11;;;19.40;58.82
50682;BME280;36779;52.168;20.878;2022-08-21T02:36:27;100044.95;;;19.33;58.98
50682;BME280;36779;52.168;20.878;2022-08-21T02:39:16;100037.71;;;19.26;59.12
50682;BME280;36779;52.168;20.878;2022-08-21T02:42:15;100037.92;;;19.21;59.11
50682;BME280;36779;52.168;20.878;2022-08-21T02:45:05;100038.02;;;19.19;59.24
50682;BME280;36779;52.168;20.878;2022-08-21T02:47:48;100034.90;;;19.19;59.26
50682;BME280;36779;52.168;20.878;2022-08-21T02:50:25;100036.38;;;19.20;59.45
50682;BME280;36779;52.168;20.878;2022-08-21T02:53:16;100033.07;;;19.22;59.58
50682;BME280;36779;52.168;20.878;2022-08-21T02:56:08;100033.81;;;19.25;59.77
50682;BME280;36779;52.168;20.878;2022-08-21T02:58:57;100026.04;;;19.33;59.95
50682;BME280;36779;52.168;20.878;2022-08-21T03:01:46;100020.30;;;19.35;59.77
50682;BME280;36779;52.168;20.878;2022-08-21T03:04:35;100022.26;;;19.37;59.80
50682;BME280;36779;52.168;20.878;2022-08-21T03:07:24;100023.63;;;19.38;59.77
50682;BME280;36779;52.168;20.878;2022-08-21T03:10:15;100021.93;;;19.39;59.88
50682;BME280;36779;52.168;20.878;2022-08-21T03:13:04;100021.13;;;19.39;59.97
50682;BME280;36779;52.168;20.878;2022-08-21T03:15:53;100013.92;;;19.37;60.02
50682;BME280;36779;52.168;20.878;2022-08-21T03:18:41;100011.88;;;19.37;60.07
50682;BME280;36779;52.168;20.878;2022-08-21T03:21:20;100014.56;;;19.41;60.28
50682;BME280;36779;52.168;20.878;2022-08-21T03:23:49;100020.47;;;19.47;60.37
50682;BME280;36779;52.168;20.878;2022-08-21T03:26:39;100019.41;;;19.54;60.50
50682;BME280;36779;52.168;20.878;2022-08-21T03:29:20;100017.91;;;19.57;60.33
50682;BME280;36779;52.168;20.878;2022-08-21T03:32:09;100017.23;;;19.50;60.13
50682;BME280;36779;52.168;20.878;2022-08-21T03:34:58;100012.99;;;19.41;60.04
50682;BME280;36779;52.168;20.878;2022-08-21T03:37:48;100007.40;;;19.34;60.14
50682;BME280;36779;52.168;20.878;2022-08-21T03:40:28;100007.73;;;19.28;60.21
50682;BME280;36779;52.168;20.878;2022-08-21T03:42:57;100007.34;;;19.25;60.32
50682;BME280;36779;52.168;20.878;2022-08-21T03:45:39;100007.48;;;19.25;60.35
50682;BME280;36779;52.168;20.878;2022-08-21T03:48:31;100015.98;;;19.27;60.47
50682;BME280;36779;52.168;20.878;2022-08-21T03:51:20;100017.29;;;19.27;60.55
50682;BME280;36779;52.168;20.878;2022-08-21T03:54:09;100023.63;;;19.28;60.49
50682;BME280;36779;52.168;20.878;2022-08-21T03:56:58;100021.09;;;19.28;60.52
50682;BME280;36779;52.168;20.878;2022-08-21T03:59:48;100021.66;;;19.33;60.75
50682;BME280;36779;52.168;20.878;2022-08-21T04:02:37;100025.26;;;19.44;60.84
50682;BME280;36779;52.168;20.878;2022-08-21T04:05:26;100026.19;;;19.55;60.91
50682;BME280;36779;52.168;20.878;2022-08-21T04:08:08;100028.64;;;19.65;61.05
50682;BME280;36779;52.168;20.878;2022-08-21T04:11:01;100030.64;;;19.70;60.98
50682;BME280;36779;52.168;20.878;2022-08-21T04:13:50;100026.01;;;19.67;60.96
50682;BME280;36779;52.168;20.878;2022-08-21T04:16:41;100024.66;;;19.68;60.88
50682;BME280;36779;52.168;20.878;2022-08-21T04:19:29;100028.43;;;19.75;61.13
50682;BME280;36779;52.168;20.878;2022-08-21T04:22:20;100030.70;;;19.82;61.02
50682;BME280;36779;52.168;20.878;2022-08-21T04:25:09;100027.52;;;19.86;61.00
50682;BME280;36779;52.168;20.878;2022-08-21T04:27:58;100024.38;;;19.84;60.89
50682;BME280;36779;52.168;20.878;2022-08-21T04:30:47;100022.38;;;19.82;60.99
50682;BME280;36779;52.168;20.878;2022-08-21T04:33:36;100015.73;;;19.82;61.09
50682;BME280;36779;52.168;20.878;2022-08-21T04:36:25;100015.55;;;19.85;61.09
50682;BME280;36779;52.168;20.878;2022-08-21T04:39:05;100021.08;;;19.92;61.20
50682;BME280;36779;52.168;20.878;2022-08-21T04:41:57;100020.91;;;20.01;61.32
50682;BME280;36779;52.168;20.878;2022-08-21T04:44:48;100017.04;;;20.13;61.47
50682;BME280;36779;52.168;20.878;2022-08-21T04:47:37;100021.98;;;20.25;61.39
50682;BME280;36779;52.168;20.878;2022-08-21T04:50:43;100021.20;;;20.31;61.32
50682;BME280;36779;52.168;20.878;2022-08-21T04:53:35;100017.83;;;20.35;61.31
50682;BME280;36779;52.168;20.878;2022-08-21T04:56:28;100020.73;;;20.43;61.35
50682;BME280;36779;52.168;20.878;2022-08-21T04:59:21;100019.13;;;20.58;61.51
50682;BME280;36779;52.168;20.878;2022-08-21T05:02:12;100017.95;;;20.80;61.49
50682;BME280;36779;52.168;20.878;2022-08-21T05:05:02;100020.27;;;21.22;61.78
50682;BME280;36779;52.168;20.878;2022-08-21T05:07:53;100022.38;;;21.60;61.79
50682;BME280;36779;52.168;20.878;2022-08-21T05:10:44;100019.77;;;21.97;61.59
50682;BME280;36779;52.168;20.878;2022-08-21T05:13:35;100022.14;;;22.15;61.32
50682;BME280;36779;52.168;20.878;2022-08-21T05:16:25;100020.60;;;22.20;61.00
50682;BME280;36779;52.168;20.878;2022-08-21T05:19:25;100016.60;;;22.16;60.72
50682;BME280;36779;52.168;20.878;2022-08-21T05:22:05;100018.88;;;22.17;60.83
50682;BME280;36779;52.168;20.878;2022-08-21T05:24:45;100016.77;;;22.33;60.84
50682;BME280;36779;52.168;20.878;2022-08-21T05:27:36;100015.66;;;22.31;60.47
50682;BME280;36779;52.168;20.878;2022-08-21T05:30:27;100016.57;;;22.26;60.34
50682;BME280;36779;52.168;20.878;2022-08-21T05:33:17;100018.02;;;22.21;60.44
50682;BME280;36779;52.168;20.878;2022-08-21T05:36:07;100021.00;;;22.18;60.43
50682;BME280;36779;52.168;20.878;2022-08-21T05:38:56;100022.01;;;22.11;60.31
50682;BME280;36779;52.168;20.878;2022-08-21T05:41:35;100023.57;;;22.04;60.20
50682;BME280;36779;52.168;20.878;2022-08-21T05:44:24;100028.21;;;21.99;60.35
50682;BME280;36779;52.168;20.878;2022-08-21T05:47:14;100027.93;;;21.95;60.23
50682;BME280;36779;52.168;20.878;2022-08-21T05:50:05;100032.52;;;21.89;60.29
50682;BME280;36779;52.168;20.878;2022-08-21T05:52:45;100027.80;;;21.85;60.32
50682;BME280;36779;52.168;20.878;2022-08-21T05:55:35;100026.81;;;21.91;60.51
50682;BME280;36779;52.168;20.878;2022-08-21T05:58:32;100021.63;;;21.96;60.50
50682;BME280;36779;52.168;20.878;2022-08-21T06:01:21;100023.01;;;22.03;60.59
50682;BME280;36779;52.168;20.878;2022-08-21T06:04:01;100021.70;;;22.10;60.64
50682;BME280;36779;52.168;20.878;2022-08-21T06:06:50;100018.91;;;22.16;60.50
50682;BME280;36779;52.168;20.878;2022-08-21T06:09:40;100017.15;;;22.21;60.35
50682;BME280;36779;52.168;20.878;2022-08-21T06:12:11;100014.84;;;22.27;60.48
50682;BME280;36779;52.168;20.878;2022-08-21T06:15:00;100019.23;;;22.33;60.49
50682;BME280;36779;52.168;20.878;2022-08-21T06:17:52;100020.48;;;22.40;60.55
50682;BME280;36779;52.168;20.878;2022-08-21T06:20:42;100025.04;;;22.43;60.44
50682;BME280;36779;52.168;20.878;2022-08-21T06:23:32;100023.17;;;22.47;60.38
50682;BME280;36779;52.168;20.878;2022-08-21T06:26:22;100030.58;;;22.51;60.46
50682;BME280;36779;52.168;20.878;2022-08-21T06:29:13;100032.96;;;22.62;60.36
50682;BME280;36779;52.168;20.878;2022-08-21T06:32:05;100038.50;;;22.69;60.27
50682;BME280;36779;52.168;20.878;2022-08-21T06:34:58;100036.86;;;22.73;60.23
50682;BME280;36779;52.168;20.878;2022-08-21T06:37:47;100041.19;;;22.76;60.14
50682;BME280;36779;52.168;20.878;2022-08-21T06:40:36;100042.45;;;22.84;60.25
50682;BME280;36779;52.168;20.878;2022-08-21T06:43:26;100044.23;;;22.94;60.30
50682;BME280;36779;52.168;20.878;2022-08-21T06:46:29;100049.27;;;23.00;60.16
50682;BME280;36779;52.168;20.878;2022-08-21T06:49:18;100052.34;;;23.02;60.23
50682;BME280;36779;52.168;20.878;2022-08-21T06:52:10;100046.92;;;23.13;60.36
50682;BME280;36779;52.168;20.878;2022-08-21T06:55:00;100051.34;;;23.26;60.21
50682;BME280;36779;52.168;20.878;2022-08-21T06:57:50;100051.38;;;23.36;60.20
50682;BME280;36779;52.168;20.878;2022-08-21T07:00:44;100053.02;;;23.45;60.14
50682;BME280;36779;52.168;20.878;2022-08-21T07:03:36;100059.18;;;23.52;60.00
50682;BME280;36779;52.168;20.878;2022-08-21T07:06:25;100058.09;;;23.52;59.91
50682;BME280;36779;52.168;20.878;2022-08-21T07:09:15;100056.02;;;23.56;59.85
50682;BME280;36779;52.168;20.878;2022-08-21T07:12:08;100057.66;;;23.62;59.89
50682;BME280;36779;52.168;20.878;2022-08-21T07:14:58;100053.31;;;23.71;59.94
50682;BME280;36779;52.168;20.878;2022-08-21T07:17:47;100049.27;;;23.74;59.71
50682;BME280;36779;52.168;20.878;2022-08-21T07:20:36;100045.13;;;23.80;59.79
50682;BME280;36779;52.168;20.878;2022-08-21T07:23:27;100043.94;;;23.92;59.81
50682;BME280;36779;52.168;20.878;2022-08-21T07:26:20;100039.80;;;23.99;59.67
50682;BME280;36779;52.168;20.878;2022-08-21T07:29:10;100043.33;;;24.03;59.71
50682;BME280;36779;52.168;20.878;2022-08-21T07:31:52;100040.48;;;24.08;59.65
50682;BME280;36779;52.168;20.878;2022-08-21T07:34:40;100035.18;;;24.13;59.49
50682;BME280;36779;52.168;20.878;2022-08-21T07:37:29;100029.21;;;24.23;59.71
50682;BME280;36779;52.168;20.878;2022-08-21T07:40:10;100030.52;;;24.31;59.57
50682;BME280;36779;52.168;20.878;2022-08-21T07:42:59;100028.67;;;24.37;59.60
50682;BME280;36779;52.168;20.878;2022-08-21T07:45:49;100026.17;;;24.44;59.39
50682;BME280;36779;52.168;20.878;2022-08-21T07:48:39;100019.55;;;24.48;59.44
50682;BME280;36779;52.168;20.878;2022-08-21T07:51:30;100016.52;;;24.57;59.44
50682;BME280;36779;52.168;20.878;2022-08-21T07:54:19;100008.82;;;24.66;59.42
50682;BME280;36779;52.168;20.878;2022-08-21T07:57:22;100008.48;;;24.75;59.39
50682;BME280;36779;52.168;20.878;2022-08-21T08:00:14;100003.29;;;24.84;59.33
50682;BME280;36779;52.168;20.878;2022-08-21T08:02:44;99999.63;;;24.96;59.20
50682;BME280;36779;52.168;20.878;2022-08-21T08:05:35;99998.52;;;25.11;59.18
50682;BME280;36779;52.168;20.878;2022-08-21T08:08:25;99997.41;;;25.21;59.10
50682;BME280;36779;52.168;20.878;2022-08-21T08:11:15;99995.36;;;25.28;59.02
50682;BME280;36779;52.168;20.878;2022-08-21T08:14:04;99995.25;;;25.30;58.91
50682;BME280;36779;52.168;20.878;2022-08-21T08:16:52;99996.16;;;25.37;58.95
50682;BME280;36779;52.168;20.878;2022-08-21T08:19:41;99993.59;;;25.43;58.84
50682;BME280;36779;52.168;20.878;2022-08-21T08:22:30;99996.76;;;25.45;58.66
50682;BME280;36779;52.168;20.878;2022-08-21T08:25:20;99998.02;;;25.44;58.55
50682;BME280;36779;52.168;20.878;2022-08-21T08:28:10;100002.13;;;25.52;58.61
50682;BME280;36779;52.168;20.878;2022-08-21T08:31:05;99998.08;;;25.53;58.46
50682;BME280;36779;52.168;20.878;2022-08-21T08:33:54;99999.86;;;25.63;58.59
50682;BME280;36779;52.168;20.878;2022-08-21T08:36:42;100000.59;;;25.84;58.65
50682;BME280;36779;52.168;20.878;2022-08-21T08:39:31;100001.48;;;26.05;58.62
50682;BME280;36779;52.168;20.878;2022-08-21T08:42:27;99995.33;;;26.29;58.76
50682;BME280;36779;52.168;20.878;2022-08-21T08:45:22;99994.64;;;26.58;58.58
50682;BME280;36779;52.168;20.878;2022-08-21T08:48:18;99992.44;;;26.81;58.31
50682;BME280;36779;52.168;20.878;2022-08-21T08:51:21;99989.60;;;27.19;58.55
50682;BME280;36779;52.168;20.878;2022-08-21T08:54:14;99988.05;;;27.59;58.26
50682;BME280;36779;52.168;20.878;2022-08-21T08:57:10;99991.53;;;27.87;57.94
50682;BME280;36779;52.168;20.878;2022-08-21T09:00:07;99997.16;;;28.09;57.74
50682;BME280;36779;52.168;20.878;2022-08-21T09:03:00;99998.52;;;28.52;57.74
50682;BME280;36779;52.168;20.878;2022-08-21T09:06:00;100001.18;;;28.87;57.47
50682;BME280;36779;52.168;20.878;2022-08-21T09:08:57;99999.87;;;29.15;57.00
50682;BME280;36779;52.168;20.878;2022-08-21T09:11:59;99993.88;;;29.39;56.74
50682;BME280;36779;52.168;20.878;2022-08-21T09:15:01;99989.30;;;29.75;56.70
50682;BME280;36779;52.168;20.878;2022-08-21T09:18:04;99988.14;;;30.05;56.35
50682;BME280;36779;52.168;20.878;2022-08-21T09:21:06;99986.61;;;30.33;55.99
50682;BME280;36779;52.168;20.878;2022-08-21T09:24:01;99990.77;;;30.55;55.60
50682;BME280;36779;52.168;20.878;2022-08-21T09:26:57;99989.66;;;30.56;54.90
50682;BME280;36779;52.168;20.878;2022-08-21T09:29:51;99991.58;;;30.39;54.53
50682;BME280;36779;52.168;20.878;2022-08-21T09:32:41;99990.52;;;30.25;54.33
50682;BME280;36779;52.168;20.878;2022-08-21T09:35:30;99982.36;;;30.20;54.36
50682;BME280;36779;52.168;20.878;2022-08-21T09:38:28;99984.08;;;30.17;54.13
50682;BME280;36779;52.168;20.878;2022-08-21T09:41:26;99980.84;;;30.21;53.95
50682;BME280;36779;52.168;20.878;2022-08-21T09:44:26;99983.92;;;30.04;53.36
50682;BME280;36779;52.168;20.878;2022-08-21T09:47:19;99980.22;;;29.83;53.60
50682;BME280;36779;52.168;20.878;2022-08-21T09:50:17;99977.36;;;29.96;53.91
50682;BME280;36779;52.168;20.878;2022-08-21T09:53:17;99976.34;;;30.24;53.84
50682;BME280;36779;52.168;20.878;2022-08-21T09:56:18;99976.02;;;30.53;53.76
50682;BME280;36779;52.168;20.878;2022-08-21T09:59:28;99973.23;;;30.90;53.59
50682;BME280;36779;52.168;20.878;2022-08-21T10:02:28;99971.90;;;30.92;52.96
50682;BME280;36779;52.168;20.878;2022-08-21T10:05:22;99968.23;;;30.69;52.37
50682;BME280;36779;52.168;20.878;2022-08-21T10:21:57;99963.34;;;31.52;52.44
50682;BME280;36779;52.168;20.878;2022-08-21T10:24:57;99963.16;;;31.80;52.08
50682;BME280;36779;52.168;20.878;2022-08-21T10:27:56;99965.06;;;32.06;52.04
50682;BME280;36779;52.168;20.878;2022-08-21T10:30:51;99964.09;;;32.24;51.67
50682;BME280;36779;52.168;20.878;2022-08-21T10:33:50;99962.02;;;32.52;51.51
50682;BME280;36779;52.168;20.878;2022-08-21T10:36:46;99961.64;;;32.50;50.98
50682;BME280;36779;52.168;20.878;2022-08-21T10:39:37;99961.14;;;32.58;50.99
50682;BME280;36779;52.168;20.878;2022-08-21T10:42:37;99962.05;;;32.65;50.44
50682;BME280;36779;52.168;20.878;2022-08-21T10:45:42;99962.63;;;32.54;50.26
50682;BME280;36779;52.168;20.878;2022-08-21T10:48:37;99962.45;;;32.44;49.77
50682;BME280;36779;52.168;20.878;2022-08-21T10:51:34;99962.99;;;32.26;49.68
50682;BME280;36779;52.168;20.878;2022-08-21T10:54:34;99957.70;;;32.09;49.68
50682;BME280;36779;52.168;20.878;2022-08-21T10:57:32;99957.48;;;31.85;49.28
50682;BME280;36779;52.168;20.878;2022-08-21T11:00:28;99954.41;;;31.43;48.91
50682;BME280;36779;52.168;20.878;2022-08-21T11:03:25;99953.29;;;31.12;49.15
50682;BME280;36779;52.168;20.878;2022-08-21T11:06:21;99954.77;;;30.95;49.27
50682;BME280;36779;52.168;20.878;2022-08-21T11:09:13;99953.66;;;31.08;49.30
50682;BME280;36779;52.168;20.878;2022-08-21T11:12:12;99946.41;;;30.97;48.97
50682;BME280;36779;52.168;20.878;2022-08-21T11:15:26;99944.96;;;30.74;48.74
50682;BME280;36779;52.168;20.878;2022-08-21T11:18:23;99946.77;;;30.41;48.56
50682;BME280;36779;52.168;20.878;2022-08-21T11:21:25;99945.46;;;30.00;48.52
50682;BME280;36779;52.168;20.878;2022-08-21T11:24:28;99943.94;;;29.67;48.70
50682;BME280;36779;52.168;20.878;2022-08-21T11:27:21;99948.48;;;29.43;48.78
50682;BME280;36779;52.168;20.878;2022-08-21T11:30:12;99948.21;;;29.23;48.96
50682;BME280;36779;52.168;20.878;2022-08-21T11:33:14;99945.93;;;29.07;49.02
50682;BME280;36779;52.168;20.878;2022-08-21T11:36:14;99949.54;;;28.89;48.95
50682;BME280;36779;52.168;20.878;2022-08-21T11:39:15;99948.84;;;28.74;49.25
50682;BME280;36779;52.168;20.878;2022-08-21T11:42:12;99947.13;;;28.72;49.42
50682;BME280;36779;52.168;20.878;2022-08-21T11:45:25;99948.09;;;28.73;49.47
50682;BME280;36779;52.168;20.878;2022-08-21T11:48:28;99943.96;;;28.79;49.68
50682;BME280;36779;52.168;20.878;2022-08-21T11:51:24;99949.32;;;28.89;49.79
50682;BME280;36779;52.168;20.878;2022-08-21T11:54:23;99944.31;;;29.09;50.02
50682;BME280;36779;52.168;20.878;2022-08-21T11:57:22;99938.45;;;29.41;50.09
50682;BME280;36779;52.168;20.878;2022-08-21T12:00:18;99936.60;;;29.47;49.49
50682;BME280;36779;52.168;20.878;2022-08-21T12:03:10;99937.30;;;29.45;49.67
50682;BME280;36779;52.168;20.878;2022-08-21T12:06:06;99937.36;;;29.67;49.62
50682;BME280;36779;52.168;20.878;2022-08-21T12:08:59;99938.90;;;29.89;49.71
50682;BME280;36779;52.168;20.878;2022-08-21T12:11:50;99941.26;;;30.14;49.55
50682;BME280;36779;52.168;20.878;2022-08-21T12:14:50;99938.80;;;30.05;48.97
50682;BME280;36779;52.168;20.878;2022-08-21T12:17:51;99934.84;;;29.88;48.86
50682;BME280;36779;52.168;20.878;2022-08-21T12:20:44;99934.66;;;29.73;48.84
50682;BME280;36779;52.168;20.878;2022-08-21T12:23:48;99932.74;;;29.70;49.04
50682;BME280;36779;52.168;20.878;2022-08-21T12:26:48;99932.77;;;29.81;49.05
50682;BME280;36779;52.168;20.878;2022-08-21T12:29:43;99931.42;;;29.95;49.01
50682;BME280;36779;52.168;20.878;2022-08-21T12:32:45;99927.58;;;30.08;48.86
50682;BME280;36779;52.168;20.878;2022-08-21T12:35:43;99930.48;;;30.17;48.57
50682;BME280;36779;52.168;20.878;2022-08-21T12:38:42;99928.98;;;30.26;48.58
50682;BME280;36779;52.168;20.878;2022-08-21T12:41:47;99931.42;;;30.35;48.53
50682;BME280;36779;52.168;20.878;2022-08-21T12:44:42;99926.66;;;30.52;48.51
50682;BME280;36779;52.168;20.878;2022-08-21T12:47:36;99926.02;;;30.76;48.50
50682;BME280;36779;52.168;20.878;2022-08-21T12:50:37;99923.15;;;30.83;48.16
50682;BME280;36779;52.168;20.878;2022-08-21T12:53:29;99924.91;;;30.75;47.84
50682;BME280;36779;52.168;20.878;2022-08-21T12:56:21;99924.49;;;30.35;47.33
50682;BME280;36779;52.168;20.878;2022-08-21T12:59:13;99919.91;;;30.04;47.52
50682;BME280;36779;52.168;20.878;2022-08-21T13:02:07;99925.20;;;29.90;47.67
50682;BME280;36779;52.168;20.878;2022-08-21T13:05:04;99926.73;;;29.72;47.56
50682;BME280;36779;52.168;20.878;2022-08-21T13:07:47;99930.67;;;29.57;47.68
50682;BME280;36779;52.168;20.878;2022-08-21T13:10:37;99926.61;;;29.41;47.61
50682;BME280;36779;52.168;20.878;2022-08-21T13:13:28;99924.63;;;29.22;47.70
50682;BME280;36779;52.168;20.878;2022-08-21T13:16:23;99921.46;;;29.09;47.76
50682;BME280;36779;52.168;20.878;2022-08-21T13:19:17;99919.70;;;29.06;47.92
50682;BME280;36779;52.168;20.878;2022-08-21T13:22:15;99919.53;;;29.07;48.04
50682;BME280;36779;52.168;20.878;2022-08-21T13:25:30;99920.77;;;28.95;47.96
50682;BME280;36779;52.168;20.878;2022-08-21T13:28:22;99913.52;;;28.91;48.09
50682;BME280;36779;52.168;20.878;2022-08-21T13:31:11;99908.21;;;28.99;48.13
50682;BME280;36779;52.168;20.878;2022-08-21T13:34:01;99906.79;;;29.08;48.11
50682;BME280;36779;52.168;20.878;2022-08-21T13:36:54;99910.98;;;29.17;48.18
50682;BME280;36779;52.168;20.878;2022-08-21T13:39:49;99913.55;;;29.36;48.23
50682;BME280;36779;52.168;20.878;2022-08-21T13:42:42;99913.59;;;29.47;48.03
50682;BME280;36779;52.168;20.878;2022-08-21T13:45:32;99920.86;;;29.32;47.65
50682;BME280;36779;52.168;20.878;2022-08-21T13:48:24;99919.52;;;29.03;47.61
50682;BME280;36779;52.168;20.878;2022-08-21T13:51:14;99923.32;;;28.81;47.81
50682;BME280;36779;52.168;20.878;2022-08-21T13:54:25;99925.48;;;28.65;47.76
50682;BME280;36779;52.168;20.878;2022-08-21T13:57:19;99928.64;;;28.43;47.81
50682;BME280;36779;52.168;20.878;2022-08-21T14:00:14;99930.03;;;28.19;47.81
50682;BME280;36779;52.168;20.878;2022-08-21T14:03:07;99930.33;;;28.02;47.86
50682;BME280;36779;52.168;20.878;2022-08-21T14:05:57;99928.95;;;27.86;48.03
50682;BME280;36779;52.168;20.878;2022-08-21T14:08:51;99929.79;;;27.76;48.12
50682;BME280;36779;52.168;20.878;2022-08-21T14:11:42;99930.41;;;27.69;48.31
50682;BME280;36779;52.168;20.878;2022-08-21T14:14:33;99933.30;;;27.67;48.45
50682;BME280;36779;52.168;20.878;2022-08-21T14:17:28;99933.02;;;27.67;48.58
50682;BME280;36779;52.168;20.878;2022-08-21T14:20:30;99935.23;;;27.70;48.53
50682;BME280;36779;52.168;20.878;2022-08-21T14:23:24;99935.77;;;27.71;48.66
50682;BME280;36779;52.168;20.878;2022-08-21T14:26:17;99935.17;;;27.71;48.66
50682;BME280;36779;52.168;20.878;2022-08-21T14:28:59;99935.79;;;27.63;48.52
50682;BME280;36779;52.168;20.878;2022-08-21T14:31:51;99937.80;;;27.57;48.61
50682;BME280;36779;52.168;20.878;2022-08-21T14:34:41;99934.27;;;27.60;48.75
50682;BME280;36779;52.168;20.878;2022-08-21T14:37:29;99939.63;;;27.68;48.96
50682;BME280;36779;52.168;20.878;2022-08-21T14:40:21;99934.54;;;27.79;49.02
50682;BME280;36779;52.168;20.878;2022-08-21T14:43:10;99937.01;;;27.84;48.93
50682;BME280;36779;52.168;20.878;2022-08-21T14:46:00;99929.71;;;27.85;48.98
50682;BME280;36779;52.168;20.878;2022-08-21T14:48:51;99928.42;;;27.82;48.86
50682;BME280;36779;52.168;20.878;2022-08-21T14:51:40;99925.78;;;27.83;48.88
50682;BME280;36779;52.168;20.878;2022-08-21T14:54:42;99925.64;;;27.93;48.96
50682;BME280;36779;52.168;20.878;2022-08-21T14:57:31;99922.95;;;27.95;48.83
50682;BME280;36779;52.168;20.878;2022-08-21T15:00:22;99918.23;;;27.89;48.78
50682;BME280;36779;52.168;20.878;2022-08-21T15:03:24;99916.55;;;27.82;48.83
50682;BME280;36779;52.168;20.878;2022-08-21T15:06:15;99919.95;;;27.72;48.72